sensor_id;sensor_type;location;lat;lon;timestamp;P1;durP1;ratioP1;P2;durP2;ratioP2
65871;SDS011;52653;50.080;21.992;2022-08-19T00:00:28;18.90;;;16.90;;
65871;SDS011;52653;50.080;21.992;2022-08-19T00:03:06;17.30;;;15.30;;
65871;SDS011;52653;50.080;21.992;2022-08-19T00:05:48;16.50;;;14.30;;
65871;SDS011;52653;50.080;21.992;2022-08-19T00:08:29;15.30;;;13.70;;
65871;SDS011;52653;50.080;21.992;2022-08-19T00:11:04;16.80;;;14.80;;
65871;SDS011;52653;50.080;21.992;2022-08-19T00:13:42;15.80;;;14.00;;
65871;SDS011;52653;50.080;21.992;2022-08-19T00:16:15;16.80;;;14.90;;
65871;SDS011;52653;50.080;21.992;2022-08-19T00:18:55;18.60;;;14.70;;
65871;SDS011;52653;50.080;21.992;2022-08-19T00:21:48;17.80;;;15.20;;
65871;SDS011;52653;50.080;21.992;2022-08-19T00:24:20;20.10;;;17.00;;
65871;SDS011;52653;50.080;21.992;2022-08-19T00:26:52;16.70;;;15.00;;
65871;SDS011;52653;50.080;21.992;2022-08-19T00:30:06;18.00;;;15.00;;
65871;SDS011;52653;50.080;21.992;2022-08-19T00:32:43;22.00;;;17.70;;
65871;SDS011;52653;50.080;21.992;2022-08-19T00:35:15;19.80;;;16.10;;
65871;SDS011;52653;50.080;21.992;2022-08-19T00:38:07;20.60;;;18.40;;
65871;SDS011;52653;50.080;21.992;2022-08-19T00:40:40;19.50;;;17.30;;
65871;SDS011;52653;50.080;21.992;2022-08-19T00:43:23;18.50;;;15.90;;
65871;SDS011;52653;50.080;21.992;2022-08-19T00:45:57;19.90;;;16.80;;
65871;SDS011;52653;50.080;21.992;2022-08-19T00:48:33;21.30;;;17.40;;
65871;SDS011;52653;50.080;21.992;2022-08-19T00:51:06;19.20;;;16.20;;
65871;SDS011;52653;50.080;21.992;2022-08-19T00:53:38;19.70;;;16.90;;
65871;SDS011;52653;50.080;21.992;2022-08-19T00:56:11;18.20;;;16.30;;
65871;SDS011;52653;50.080;21.992;2022-08-19T00:58:47;18.60;;;16.50;;
65871;SDS011;52653;50.080;21.992;2022-08-19T01:01:19;21.50;;;17.70;;
65871;SDS011;52653;50.080;21.992;2022-08-19T01:03:51;20.40;;;17.20;;
65871;SDS011;52653;50.080;21.992;2022-08-19T01:06:26;21.70;;;17.20;;
65871;SDS011;52653;50.080;21.992;2022-08-19T01:09:21;19.50;;;16.90;;
65871;SDS011;52653;50.080;21.992;2022-08-19T01:12:13;20.00;;;15.70;;
65871;SDS011;52653;50.080;21.992;2022-08-19T01:14:50;18.10;;;15.90;;
65871;SDS011;52653;50.080;21.992;2022-08-19T01:17:43;21.30;;;16.80;;
65871;SDS011;52653;50.080;21.992;2022-08-19T01:20:18;22.00;;;19.10;;
65871;SDS011;52653;50.080;21.992;2022-08-19T01:22:52;21.60;;;19.40;;
65871;SDS011;52653;50.080;21.992;2022-08-19T01:25:28;20.90;;;18.40;;
65871;SDS011;52653;50.080;21.992;2022-08-19T01:28:23;20.50;;;17.00;;
65871;SDS011;52653;50.080;21.992;2022-08-19T01:31:08;18.30;;;16.10;;
65871;SDS011;52653;50.080;21.992;2022-08-19T01:36:37;20.80;;;16.70;;
65871;SDS011;52653;50.080;21.992;2022-08-19T01:39:12;18.60;;;16.10;;
65871;SDS011;52653;50.080;21.992;2022-08-19T01:41:45;18.50;;;16.10;;
65871;SDS011;52653;50.080;21.992;2022-08-19T01:44:39;19.20;;;16.90;;
65871;SDS011;52653;50.080;21.992;2022-08-19T01:47:31;21.20;;;18.40;;
65871;SDS011;52653;50.080;21.992;2022-08-19T01:50:13;22.90;;;18.90;;
65871;SDS011;52653;50.080;21.992;2022-08-19T01:53:07;21.50;;;18.20;;
65871;SDS011;52653;50.080;21.992;2022-08-19T01:55:42;22.70;;;19.90;;
65871;SDS011;52653;50.080;21.992;2022-08-19T01:58:15;22.40;;;19.90;;
65871;SDS011;52653;50.080;21.992;2022-08-19T02:01:10;22.60;;;20.00;;
65871;SDS011;52653;50.080;21.992;2022-08-19T02:04:03;22.90;;;19.90;;
65871;SDS011;52653;50.080;21.992;2022-08-19T02:06:52;23.50;;;20.30;;
65871;SDS011;52653;50.080;21.992;2022-08-19T02:09:44;24.40;;;20.00;;
65871;SDS011;52653;50.080;21.992;2022-08-19T02:12:35;28.20;;;21.40;;
65871;SDS011;52653;50.080;21.992;2022-08-19T02:15:19;24.10;;;21.00;;
65871;SDS011;52653;50.080;21.992;2022-08-19T02:18:12;23.50;;;19.50;;
65871;SDS011;52653;50.080;21.992;2022-08-19T02:20:59;25.50;;;21.00;;
65871;SDS011;52653;50.080;21.992;2022-08-19T02:23:51;23.10;;;19.60;;
65871;SDS011;52653;50.080;21.992;2022-08-19T02:26:34;26.10;;;20.50;;
65871;SDS011;52653;50.080;21.992;2022-08-19T02:29:25;23.20;;;20.60;;
65871;SDS011;52653;50.080;21.992;2022-08-19T02:31:58;23.10;;;20.50;;
65871;SDS011;52653;50.080;21.992;2022-08-19T02:34:30;23.40;;;20.90;;
65871;SDS011;52653;50.080;21.992;2022-08-19T02:37:02;24.60;;;20.90;;
65871;SDS011;52653;50.080;21.992;2022-08-19T02:39:34;24.50;;;20.80;;
65871;SDS011;52653;50.080;21.992;2022-08-19T02:42:06;22.70;;;20.00;;
65871;SDS011;52653;50.080;21.992;2022-08-19T02:44:38;22.90;;;19.70;;
65871;SDS011;52653;50.080;21.992;2022-08-19T02:47:10;25.00;;;19.50;;
65871;SDS011;52653;50.080;21.992;2022-08-19T02:49:43;23.60;;;20.50;;
65871;SDS011;52653;50.080;21.992;2022-08-19T02:52:18;22.40;;;20.10;;
65871;SDS011;52653;50.080;21.992;2022-08-19T02:54:52;23.30;;;20.90;;
65871;SDS011;52653;50.080;21.992;2022-08-19T02:57:29;22.80;;;19.80;;
65871;SDS011;52653;50.080;21.992;2022-08-19T03:00:03;25.30;;;20.90;;
65871;SDS011;52653;50.080;21.992;2022-08-19T03:02:37;22.00;;;19.30;;
65871;SDS011;52653;50.080;21.992;2022-08-19T03:05:12;23.90;;;20.00;;
65871;SDS011;52653;50.080;21.992;2022-08-19T03:08:08;22.30;;;19.60;;
65871;SDS011;52653;50.080;21.992;2022-08-19T03:10:41;24.10;;;19.60;;
65871;SDS011;52653;50.080;21.992;2022-08-19T03:13:16;21.80;;;19.40;;
65871;SDS011;52653;50.080;21.992;2022-08-19T03:15:48;23.10;;;20.70;;
65871;SDS011;52653;50.080;21.992;2022-08-19T03:18:20;25.20;;;19.80;;
65871;SDS011;52653;50.080;21.992;2022-08-19T03:20:52;21.80;;;19.50;;
65871;SDS011;52653;50.080;21.992;2022-08-19T03:23:25;21.60;;;19.10;;
65871;SDS011;52653;50.080;21.992;2022-08-19T03:25:57;21.50;;;19.20;;
65871;SDS011;52653;50.080;21.992;2022-08-19T03:28:45;21.80;;;19.50;;
65871;SDS011;52653;50.080;21.992;2022-08-19T03:31:26;21.90;;;19.40;;
65871;SDS011;52653;50.080;21.992;2022-08-19T03:34:20;25.40;;;21.30;;
65871;SDS011;52653;50.080;21.992;2022-08-19T03:36:56;21.60;;;19.40;;
65871;SDS011;52653;50.080;21.992;2022-08-19T03:39:30;25.00;;;19.50;;
65871;SDS011;52653;50.080;21.992;2022-08-19T03:42:02;22.80;;;18.70;;
65871;SDS011;52653;50.080;21.992;2022-08-19T03:44:54;22.20;;;18.60;;
65871;SDS011;52653;50.080;21.992;2022-08-19T03:47:27;22.80;;;18.80;;
65871;SDS011;52653;50.080;21.992;2022-08-19T03:49:59;20.80;;;18.30;;
65871;SDS011;52653;50.080;21.992;2022-08-19T03:52:31;20.80;;;18.00;;
65871;SDS011;52653;50.080;21.992;2022-08-19T03:55:03;20.00;;;17.40;;
65871;SDS011;52653;50.080;21.992;2022-08-19T03:57:39;23.50;;;18.10;;
65871;SDS011;52653;50.080;21.992;2022-08-19T04:00:11;20.30;;;17.70;;
65871;SDS011;52653;50.080;21.992;2022-08-19T04:02:44;20.80;;;17.80;;
65871;SDS011;52653;50.080;21.992;2022-08-19T04:05:28;19.40;;;17.40;;
65871;SDS011;52653;50.080;21.992;2022-08-19T04:08:12;20.10;;;17.90;;
65871;SDS011;52653;50.080;21.992;2022-08-19T04:11:09;23.00;;;19.30;;
65871;SDS011;52653;50.080;21.992;2022-08-19T04:13:43;22.20;;;19.90;;
65871;SDS011;52653;50.080;21.992;2022-08-19T04:16:15;22.10;;;19.80;;
65871;SDS011;52653;50.080;21.992;2022-08-19T04:18:48;20.60;;;17.90;;
65871;SDS011;52653;50.080;21.992;2022-08-19T04:21:22;21.20;;;18.40;;
65871;SDS011;52653;50.080;21.992;2022-08-19T04:23:55;21.10;;;17.80;;
65871;SDS011;52653;50.080;21.992;2022-08-19T04:26:28;22.60;;;18.20;;
65871;SDS011;52653;50.080;21.992;2022-08-19T04:29:04;20.70;;;18.00;;
65871;SDS011;52653;50.080;21.992;2022-08-19T04:31:40;22.00;;;18.80;;
65871;SDS011;52653;50.080;21.992;2022-08-19T04:34:25;21.20;;;18.80;;
65871;SDS011;52653;50.080;21.992;2022-08-19T04:36:59;21.10;;;18.10;;
65871;SDS011;52653;50.080;21.992;2022-08-19T04:39:31;21.40;;;18.00;;
65871;SDS011;52653;50.080;21.992;2022-08-19T04:42:26;20.40;;;17.30;;
65871;SDS011;52653;50.080;21.992;2022-08-19T04:45:11;20.80;;;18.60;;
65871;SDS011;52653;50.080;21.992;2022-08-19T04:47:45;19.40;;;17.50;;
65871;SDS011;52653;50.080;21.992;2022-08-19T04:50:38;21.40;;;18.40;;
65871;SDS011;52653;50.080;21.992;2022-08-19T04:53:11;20.00;;;17.60;;
65871;SDS011;52653;50.080;21.992;2022-08-19T04:55:44;20.10;;;17.80;;
65871;SDS011;52653;50.080;21.992;2022-08-19T04:58:16;19.50;;;17.10;;
65871;SDS011;52653;50.080;21.992;2022-08-19T05:00:50;18.70;;;16.70;;
65871;SDS011;52653;50.080;21.992;2022-08-19T05:03:23;19.80;;;17.10;;
65871;SDS011;52653;50.080;21.992;2022-08-19T05:05:58;21.40;;;17.40;;
65871;SDS011;52653;50.080;21.992;2022-08-19T05:08:34;18.90;;;16.80;;
65871;SDS011;52653;50.080;21.992;2022-08-19T05:11:11;19.60;;;17.40;;
65871;SDS011;52653;50.080;21.992;2022-08-19T05:13:45;20.20;;;17.50;;
65871;SDS011;52653;50.080;21.992;2022-08-19T05:16:18;19.10;;;17.10;;
65871;SDS011;52653;50.080;21.992;2022-08-19T05:18:51;19.90;;;17.70;;
65871;SDS011;52653;50.080;21.992;2022-08-19T05:21:38;20.10;;;18.10;;
65871;SDS011;52653;50.080;21.992;2022-08-19T05:24:28;19.20;;;17.00;;
65871;SDS011;52653;50.080;21.992;2022-08-19T05:27:03;20.40;;;18.30;;
65871;SDS011;52653;50.080;21.992;2022-08-19T05:29:35;19.90;;;17.70;;
65871;SDS011;52653;50.080;21.992;2022-08-19T05:32:07;21.00;;;15.80;;
65871;SDS011;52653;50.080;21.992;2022-08-19T05:34:39;18.10;;;15.50;;
65871;SDS011;52653;50.080;21.992;2022-08-19T05:37:11;16.40;;;14.70;;
65871;SDS011;52653;50.080;21.992;2022-08-19T05:39:43;16.90;;;15.20;;
65871;SDS011;52653;50.080;21.992;2022-08-19T05:42:29;18.40;;;15.30;;
65871;SDS011;52653;50.080;21.992;2022-08-19T05:45:01;18.70;;;15.20;;
65871;SDS011;52653;50.080;21.992;2022-08-19T05:47:34;17.90;;;16.00;;
65871;SDS011;52653;50.080;21.992;2022-08-19T05:50:10;19.20;;;17.10;;
65871;SDS011;52653;50.080;21.992;2022-08-19T05:53:02;20.20;;;17.20;;
65871;SDS011;52653;50.080;21.992;2022-08-19T05:55:37;16.80;;;15.10;;
65871;SDS011;52653;50.080;21.992;2022-08-19T05:58:09;16.20;;;14.50;;
65871;SDS011;52653;50.080;21.992;2022-08-19T06:00:53;18.60;;;14.90;;
65871;SDS011;52653;50.080;21.992;2022-08-19T06:03:36;17.10;;;15.30;;
65871;SDS011;52653;50.080;21.992;2022-08-19T06:06:18;16.30;;;14.50;;
65871;SDS011;52653;50.080;21.992;2022-08-19T06:09:06;18.10;;;15.90;;
65871;SDS011;52653;50.080;21.992;2022-08-19T06:11:40;17.90;;;16.10;;
65871;SDS011;52653;50.080;21.992;2022-08-19T06:14:15;17.20;;;15.40;;
65871;SDS011;52653;50.080;21.992;2022-08-19T06:17:15;18.90;;;15.70;;
65871;SDS011;52653;50.080;21.992;2022-08-19T06:19:58;15.30;;;13.70;;
65871;SDS011;52653;50.080;21.992;2022-08-19T06:22:51;14.80;;;13.00;;
65871;SDS011;52653;50.080;21.992;2022-08-19T06:25:25;13.80;;;12.10;;
65871;SDS011;52653;50.080;21.992;2022-08-19T06:27:58;18.10;;;14.30;;
65871;SDS011;52653;50.080;21.992;2022-08-19T06:30:57;16.30;;;14.40;;
65871;SDS011;52653;50.080;21.992;2022-08-19T06:33:30;18.10;;;14.80;;
65871;SDS011;52653;50.080;21.992;2022-08-19T06:36:03;17.10;;;13.00;;
65871;SDS011;52653;50.080;21.992;2022-08-19T06:38:35;19.30;;;14.20;;
65871;SDS011;52653;50.080;21.992;2022-08-19T06:41:07;15.40;;;13.70;;
65871;SDS011;52653;50.080;21.992;2022-08-19T06:43:47;16.50;;;13.90;;
65871;SDS011;52653;50.080;21.992;2022-08-19T06:46:36;17.80;;;13.90;;
65871;SDS011;52653;50.080;21.992;2022-08-19T06:49:10;15.10;;;12.60;;
65871;SDS011;52653;50.080;21.992;2022-08-19T06:51:43;16.70;;;13.80;;
65871;SDS011;52653;50.080;21.992;2022-08-19T06:54:20;15.70;;;14.00;;
65871;SDS011;52653;50.080;21.992;2022-08-19T06:56:59;14.50;;;13.00;;
65871;SDS011;52653;50.080;21.992;2022-08-19T06:59:32;14.40;;;12.00;;
65871;SDS011;52653;50.080;21.992;2022-08-19T07:02:05;15.80;;;11.90;;
65871;SDS011;52653;50.080;21.992;2022-08-19T07:04:39;16.30;;;11.80;;
65871;SDS011;52653;50.080;21.992;2022-08-19T07:07:13;14.20;;;12.40;;
65871;SDS011;52653;50.080;21.992;2022-08-19T07:09:49;13.90;;;12.20;;
65871;SDS011;52653;50.080;21.992;2022-08-19T07:12:30;14.70;;;12.00;;
65871;SDS011;52653;50.080;21.992;2022-08-19T07:15:06;14.00;;;12.20;;
65871;SDS011;52653;50.080;21.992;2022-08-19T07:17:39;14.50;;;11.90;;
65871;SDS011;52653;50.080;21.992;2022-08-19T07:20:22;12.50;;;10.70;;
65871;SDS011;52653;50.080;21.992;2022-08-19T07:22:57;13.30;;;11.90;;
65871;SDS011;52653;50.080;21.992;2022-08-19T07:25:29;12.50;;;11.20;;
65871;SDS011;52653;50.080;21.992;2022-08-19T07:28:01;14.30;;;12.60;;
65871;SDS011;52653;50.080;21.992;2022-08-19T07:30:35;17.10;;;12.50;;
65871;SDS011;52653;50.080;21.992;2022-08-19T07:33:11;12.60;;;11.30;;
65871;SDS011;52653;50.080;21.992;2022-08-19T07:35:43;12.20;;;10.90;;
65871;SDS011;52653;50.080;21.992;2022-08-19T07:38:18;13.90;;;11.00;;
65871;SDS011;52653;50.080;21.992;2022-08-19T07:40:50;12.50;;;11.20;;
65871;SDS011;52653;50.080;21.992;2022-08-19T07:43:22;12.80;;;11.00;;
65871;SDS011;52653;50.080;21.992;2022-08-19T07:46:02;15.30;;;10.90;;
65871;SDS011;52653;50.080;21.992;2022-08-19T07:48:35;13.20;;;10.60;;
65871;SDS011;52653;50.080;21.992;2022-08-19T07:51:07;13.00;;;10.20;;
65871;SDS011;52653;50.080;21.992;2022-08-19T07:53:44;13.30;;;10.80;;
65871;SDS011;52653;50.080;21.992;2022-08-19T07:56:16;12.60;;;10.20;;
65871;SDS011;52653;50.080;21.992;2022-08-19T07:58:50;12.10;;;10.10;;
65871;SDS011;52653;50.080;21.992;2022-08-19T08:01:27;10.90;;;9.60;;
65871;SDS011;52653;50.080;21.992;2022-08-19T08:03:59;11.80;;;9.80;;
65871;SDS011;52653;50.080;21.992;2022-08-19T08:06:52;11.50;;;9.10;;
65871;SDS011;52653;50.080;21.992;2022-08-19T08:09:45;11.90;;;9.30;;
65871;SDS011;52653;50.080;21.992;2022-08-19T08:12:19;10.50;;;9.30;;
65871;SDS011;52653;50.080;21.992;2022-08-19T08:15:22;12.40;;;9.40;;
65871;SDS011;52653;50.080;21.992;2022-08-19T08:17:53;10.90;;;9.10;;
65871;SDS011;52653;50.080;21.992;2022-08-19T08:20:26;11.60;;;9.60;;
65871;SDS011;52653;50.080;21.992;2022-08-19T08:22:58;10.60;;;9.40;;
65871;SDS011;52653;50.080;21.992;2022-08-19T08:25:44;10.10;;;8.60;;
65871;SDS011;52653;50.080;21.992;2022-08-19T08:28:17;10.10;;;9.00;;
65871;SDS011;52653;50.080;21.992;2022-08-19T08:30:50;11.80;;;9.40;;
65871;SDS011;52653;50.080;21.992;2022-08-19T08:33:25;11.20;;;9.10;;
65871;SDS011;52653;50.080;21.992;2022-08-19T08:36:03;10.40;;;9.20;;
65871;SDS011;52653;50.080;21.992;2022-08-19T08:38:36;12.70;;;8.80;;
65871;SDS011;52653;50.080;21.992;2022-08-19T08:41:12;11.30;;;9.50;;
65871;SDS011;52653;50.080;21.992;2022-08-19T08:43:50;10.40;;;9.30;;
65871;SDS011;52653;50.080;21.992;2022-08-19T08:46:24;12.30;;;9.20;;
65871;SDS011;52653;50.080;21.992;2022-08-19T08:49:02;10.60;;;9.10;;
65871;SDS011;52653;50.080;21.992;2022-08-19T08:52:00;10.50;;;8.80;;
65871;SDS011;52653;50.080;21.992;2022-08-19T08:54:37;12.50;;;8.60;;
65871;SDS011;52653;50.080;21.992;2022-08-19T08:57:27;10.80;;;8.80;;
65871;SDS011;52653;50.080;21.992;2022-08-19T09:00:09;10.30;;;9.20;;
65871;SDS011;52653;50.080;21.992;2022-08-19T09:02:45;10.70;;;9.20;;
65871;SDS011;52653;50.080;21.992;2022-08-19T09:05:19;12.40;;;8.60;;
65871;SDS011;52653;50.080;21.992;2022-08-19T09:07:56;9.70;;;8.70;;
65871;SDS011;52653;50.080;21.992;2022-08-19T09:10:36;9.10;;;8.20;;
65871;SDS011;52653;50.080;21.992;2022-08-19T09:13:14;10.70;;;8.70;;
65871;SDS011;52653;50.080;21.992;2022-08-19T09:15:54;9.60;;;8.60;;
65871;SDS011;52653;50.080;21.992;2022-08-19T09:18:39;13.80;;;9.70;;
65871;SDS011;52653;50.080;21.992;2022-08-19T09:21:15;10.10;;;8.40;;
65871;SDS011;52653;50.080;21.992;2022-08-19T09:23:53;10.10;;;9.00;;
65871;SDS011;52653;50.080;21.992;2022-08-19T09:26:28;11.00;;;9.80;;
65871;SDS011;52653;50.080;21.992;2022-08-19T09:29:21;10.50;;;9.40;;
65871;SDS011;52653;50.080;21.992;2022-08-19T09:31:53;11.40;;;8.80;;
65871;SDS011;52653;50.080;21.992;2022-08-19T09:34:25;11.20;;;9.10;;
65871;SDS011;52653;50.080;21.992;2022-08-19T09:37:05;10.20;;;9.00;;
65871;SDS011;52653;50.080;21.992;2022-08-19T09:39:38;11.40;;;8.70;;
65871;SDS011;52653;50.080;21.992;2022-08-19T09:42:11;9.80;;;8.90;;
65871;SDS011;52653;50.080;21.992;2022-08-19T09:44:45;10.10;;;8.90;;
65871;SDS011;52653;50.080;21.992;2022-08-19T09:47:17;11.40;;;9.00;;
65871;SDS011;52653;50.080;21.992;2022-08-19T09:49:50;10.90;;;9.20;;
65871;SDS011;52653;50.080;21.992;2022-08-19T09:52:22;9.70;;;8.60;;
65871;SDS011;52653;50.080;21.992;2022-08-19T09:55:00;9.80;;;8.40;;
65871;SDS011;52653;50.080;21.992;2022-08-19T09:57:36;9.70;;;8.70;;
65871;SDS011;52653;50.080;21.992;2022-08-19T10:00:09;11.10;;;9.10;;
65871;SDS011;52653;50.080;21.992;2022-08-19T10:02:41;10.60;;;9.00;;
65871;SDS011;52653;50.080;21.992;2022-08-19T10:05:13;12.20;;;9.10;;
65871;SDS011;52653;50.080;21.992;2022-08-19T10:08:03;9.80;;;8.60;;
65871;SDS011;52653;50.080;21.992;2022-08-19T10:10:41;9.80;;;7.80;;
65871;SDS011;52653;50.080;21.992;2022-08-19T10:13:15;10.30;;;8.30;;
65871;SDS011;52653;50.080;21.992;2022-08-19T10:15:51;9.70;;;8.60;;
65871;SDS011;52653;50.080;21.992;2022-08-19T10:18:24;10.20;;;9.00;;
65871;SDS011;52653;50.080;21.992;2022-08-19T10:21:03;12.70;;;8.80;;
65871;SDS011;52653;50.080;21.992;2022-08-19T10:23:41;11.70;;;8.10;;
65871;SDS011;52653;50.080;21.992;2022-08-19T10:26:16;8.80;;;7.80;;
65871;SDS011;52653;50.080;21.992;2022-08-19T10:28:50;9.70;;;8.40;;
65871;SDS011;52653;50.080;21.992;2022-08-19T10:31:23;10.10;;;7.90;;
65871;SDS011;52653;50.080;21.992;2022-08-19T10:34:17;8.90;;;7.20;;
65871;SDS011;52653;50.080;21.992;2022-08-19T10:36:56;9.10;;;7.90;;
65871;SDS011;52653;50.080;21.992;2022-08-19T10:39:30;10.20;;;7.80;;
65871;SDS011;52653;50.080;21.992;2022-08-19T10:42:11;8.60;;;7.60;;
65871;SDS011;52653;50.080;21.992;2022-08-19T10:44:43;9.70;;;7.60;;
65871;SDS011;52653;50.080;21.992;2022-08-19T10:47:20;9.30;;;7.20;;
65871;SDS011;52653;50.080;21.992;2022-08-19T10:50:00;9.40;;;7.90;;
65871;SDS011;52653;50.080;21.992;2022-08-19T10:55:27;10.60;;;7.50;;
65871;SDS011;52653;50.080;21.992;2022-08-19T10:58:18;9.90;;;7.70;;
65871;SDS011;52653;50.080;21.992;2022-08-19T11:00:55;10.30;;;7.60;;
65871;SDS011;52653;50.080;21.992;2022-08-19T11:03:28;9.40;;;7.10;;
65871;SDS011;52653;50.080;21.992;2022-08-19T11:06:00;9.60;;;7.20;;
65871;SDS011;52653;50.080;21.992;2022-08-19T11:08:33;10.30;;;7.40;;
65871;SDS011;52653;50.080;21.992;2022-08-19T11:11:06;8.80;;;7.40;;
65871;SDS011;52653;50.080;21.992;2022-08-19T11:13:40;9.00;;;7.10;;
65871;SDS011;52653;50.080;21.992;2022-08-19T11:16:14;9.50;;;7.70;;
65871;SDS011;52653;50.080;21.992;2022-08-19T11:18:48;8.50;;;7.00;;
65871;SDS011;52653;50.080;21.992;2022-08-19T11:21:24;10.10;;;6.70;;
65871;SDS011;52653;50.080;21.992;2022-08-19T11:24:01;9.50;;;6.70;;
65871;SDS011;52653;50.080;21.992;2022-08-19T11:26:38;7.50;;;6.40;;
65871;SDS011;52653;50.080;21.992;2022-08-19T11:29:12;9.20;;;7.00;;
65871;SDS011;52653;50.080;21.992;2022-08-19T11:31:48;8.50;;;6.90;;
65871;SDS011;52653;50.080;21.992;2022-08-19T11:34:24;8.60;;;6.30;;
65871;SDS011;52653;50.080;21.992;2022-08-19T11:36:58;9.70;;;6.20;;
65871;SDS011;52653;50.080;21.992;2022-08-19T11:39:31;6.80;;;6.10;;
65871;SDS011;52653;50.080;21.992;2022-08-19T11:42:25;6.40;;;5.70;;
65871;SDS011;52653;50.080;21.992;2022-08-19T11:45:14;7.90;;;6.60;;
65871;SDS011;52653;50.080;21.992;2022-08-19T11:47:46;7.90;;;6.20;;
65871;SDS011;52653;50.080;21.992;2022-08-19T11:50:21;9.70;;;6.80;;
65871;SDS011;52653;50.080;21.992;2022-08-19T11:52:56;11.90;;;7.00;;
65871;SDS011;52653;50.080;21.992;2022-08-19T11:55:29;7.60;;;6.00;;
65871;SDS011;52653;50.080;21.992;2022-08-19T11:58:01;10.10;;;6.90;;
65871;SDS011;52653;50.080;21.992;2022-08-19T12:00:46;10.30;;;6.80;;
65871;SDS011;52653;50.080;21.992;2022-08-19T12:03:18;9.50;;;6.90;;
65871;SDS011;52653;50.080;21.992;2022-08-19T12:05:50;9.90;;;6.80;;
65871;SDS011;52653;50.080;21.992;2022-08-19T12:08:22;10.00;;;6.50;;
65871;SDS011;52653;50.080;21.992;2022-08-19T12:10:54;9.50;;;6.20;;
65871;SDS011;52653;50.080;21.992;2022-08-19T12:13:26;10.10;;;6.70;;
65871;SDS011;52653;50.080;21.992;2022-08-19T12:15:58;9.30;;;6.10;;
65871;SDS011;52653;50.080;21.992;2022-08-19T12:18:33;11.50;;;6.60;;
65871;SDS011;52653;50.080;21.992;2022-08-19T12:21:10;7.80;;;6.40;;
65871;SDS011;52653;50.080;21.992;2022-08-19T12:23:43;9.70;;;6.40;;
65871;SDS011;52653;50.080;21.992;2022-08-19T12:26:15;7.50;;;6.10;;
65871;SDS011;52653;50.080;21.992;2022-08-19T12:28:47;9.00;;;6.10;;
65871;SDS011;52653;50.080;21.992;2022-08-19T12:31:22;9.10;;;6.10;;
65871;SDS011;52653;50.080;21.992;2022-08-19T12:33:54;8.20;;;6.00;;
65871;SDS011;52653;50.080;21.992;2022-08-19T12:36:26;7.90;;;6.10;;
65871;SDS011;52653;50.080;21.992;2022-08-19T12:39:00;8.70;;;6.10;;
65871;SDS011;52653;50.080;21.992;2022-08-19T12:41:33;9.70;;;5.90;;
65871;SDS011;52653;50.080;21.992;2022-08-19T12:44:19;10.40;;;6.70;;
65871;SDS011;52653;50.080;21.992;2022-08-19T12:47:00;6.80;;;6.00;;
65871;SDS011;52653;50.080;21.992;2022-08-19T12:52:24;8.10;;;6.00;;
65871;SDS011;52653;50.080;21.992;2022-08-19T12:54:57;8.00;;;5.90;;
65871;SDS011;52653;50.080;21.992;2022-08-19T12:57:32;8.10;;;5.50;;
65871;SDS011;52653;50.080;21.992;2022-08-19T13:00:06;11.10;;;6.40;;
65871;SDS011;52653;50.080;21.992;2022-08-19T13:02:41;8.60;;;6.20;;
65871;SDS011;52653;50.080;21.992;2022-08-19T13:05:16;8.10;;;5.80;;
65871;SDS011;52653;50.080;21.992;2022-08-19T13:07:52;8.10;;;5.60;;
65871;SDS011;52653;50.080;21.992;2022-08-19T13:10:26;8.60;;;5.90;;
65871;SDS011;52653;50.080;21.992;2022-08-19T13:13:04;8.60;;;6.20;;
65871;SDS011;52653;50.080;21.992;2022-08-19T13:15:39;10.20;;;6.50;;
65871;SDS011;52653;50.080;21.992;2022-08-19T13:18:14;11.40;;;6.20;;
65871;SDS011;52653;50.080;21.992;2022-08-19T13:20:47;8.50;;;6.50;;
65871;SDS011;52653;50.080;21.992;2022-08-19T13:23:21;9.20;;;6.80;;
65871;SDS011;52653;50.080;21.992;2022-08-19T13:25:59;7.90;;;6.50;;
65871;SDS011;52653;50.080;21.992;2022-08-19T13:28:33;8.40;;;6.30;;
65871;SDS011;52653;50.080;21.992;2022-08-19T13:31:24;8.10;;;6.30;;
65871;SDS011;52653;50.080;21.992;2022-08-19T13:34:15;9.10;;;6.70;;
65871;SDS011;52653;50.080;21.992;2022-08-19T13:36:49;12.50;;;6.20;;
65871;SDS011;52653;50.080;21.992;2022-08-19T13:39:24;8.70;;;6.30;;
65871;SDS011;52653;50.080;21.992;2022-08-19T13:41:57;10.30;;;6.30;;
65871;SDS011;52653;50.080;21.992;2022-08-19T13:44:29;10.00;;;6.60;;
65871;SDS011;52653;50.080;21.992;2022-08-19T13:47:02;9.90;;;6.50;;
65871;SDS011;52653;50.080;21.992;2022-08-19T13:49:36;9.60;;;6.40;;
65871;SDS011;52653;50.080;21.992;2022-08-19T13:52:08;9.80;;;6.30;;
65871;SDS011;52653;50.080;21.992;2022-08-19T13:54:39;11.20;;;6.40;;
65871;SDS011;52653;50.080;21.992;2022-08-19T13:57:14;9.70;;;6.60;;
65871;SDS011;52653;50.080;21.992;2022-08-19T13:59:46;10.70;;;6.40;;
65871;SDS011;52653;50.080;21.992;2022-08-19T14:02:17;9.10;;;6.10;;
65871;SDS011;52653;50.080;21.992;2022-08-19T14:04:49;8.30;;;6.80;;
65871;SDS011;52653;50.080;21.992;2022-08-19T14:07:21;7.50;;;6.00;;
65871;SDS011;52653;50.080;21.992;2022-08-19T14:09:53;11.70;;;6.00;;
65871;SDS011;52653;50.080;21.992;2022-08-19T14:12:25;14.20;;;6.50;;
65871;SDS011;52653;50.080;21.992;2022-08-19T14:14:57;9.90;;;6.00;;
65871;SDS011;52653;50.080;21.992;2022-08-19T14:17:29;9.50;;;6.30;;
65871;SDS011;52653;50.080;21.992;2022-08-19T14:20:02;9.90;;;6.20;;
65871;SDS011;52653;50.080;21.992;2022-08-19T14:22:39;10.10;;;6.10;;
65871;SDS011;52653;50.080;21.992;2022-08-19T14:25:13;7.70;;;5.50;;
65871;SDS011;52653;50.080;21.992;2022-08-19T14:27:47;10.90;;;6.30;;
65871;SDS011;52653;50.080;21.992;2022-08-19T14:30:21;8.70;;;6.00;;
65871;SDS011;52653;50.080;21.992;2022-08-19T14:32:56;9.20;;;5.80;;
65871;SDS011;52653;50.080;21.992;2022-08-19T14:35:30;9.60;;;6.40;;
65871;SDS011;52653;50.080;21.992;2022-08-19T14:38:06;9.90;;;6.40;;
65871;SDS011;52653;50.080;21.992;2022-08-19T14:41:07;10.20;;;6.20;;
65871;SDS011;52653;50.080;21.992;2022-08-19T14:43:40;9.80;;;6.40;;
65871;SDS011;52653;50.080;21.992;2022-08-19T14:46:15;11.10;;;6.60;;
65871;SDS011;52653;50.080;21.992;2022-08-19T14:48:56;10.90;;;7.00;;
65871;SDS011;52653;50.080;21.992;2022-08-19T14:51:37;9.50;;;7.20;;
65871;SDS011;52653;50.080;21.992;2022-08-19T14:54:09;11.50;;;7.00;;
65871;SDS011;52653;50.080;21.992;2022-08-19T14:56:41;12.70;;;7.10;;
65871;SDS011;52653;50.080;21.992;2022-08-19T14:59:13;9.40;;;7.10;;
65871;SDS011;52653;50.080;21.992;2022-08-19T15:01:45;13.80;;;6.90;;
65871;SDS011;52653;50.080;21.992;2022-08-19T15:04:17;13.60;;;6.60;;
65871;SDS011;52653;50.080;21.992;2022-08-19T15:06:49;11.80;;;6.70;;
65871;SDS011;52653;50.080;21.992;2022-08-19T15:09:21;8.90;;;6.80;;
65871;SDS011;52653;50.080;21.992;2022-08-19T15:11:52;13.50;;;7.40;;
65871;SDS011;52653;50.080;21.992;2022-08-19T15:14:26;11.60;;;6.70;;
65871;SDS011;52653;50.080;21.992;2022-08-19T15:17:04;10.60;;;7.60;;
65871;SDS011;52653;50.080;21.992;2022-08-19T15:19:36;17.00;;;7.50;;
65871;SDS011;52653;50.080;21.992;2022-08-19T15:22:08;11.70;;;7.40;;
65871;SDS011;52653;50.080;21.992;2022-08-19T15:24:39;12.50;;;7.10;;